sensor_id;sensor_type;location;lat;lon;timestamp;temperature;humidity
1049;DHT22;513;51.444;7.196;2023-02-11T00:01:49;5.90;99.90
1049;DHT22;513;51.444;7.196;2023-02-11T00:04:16;6.00;99.90
1049;DHT22;513;51.444;7.196;2023-02-11T00:06:43;6.00;99.90
1049;DHT22;513;51.444;7.196;2023-02-11T00:09:10;6.00;99.90
1049;DHT22;513;51.444;7.196;2023-02-11T00:11:37;6.00;99.90
1049;DHT22;513;51.444;7.196;2023-02-11T00:14:05;6.00;99.90
1049;DHT22;513;51.444;7.196;2023-02-11T00:16:32;6.00;99.90
1049;DHT22;513;51.444;7.196;2023-02-11T00:19:01;6.10;99.90
1049;DHT22;513;51.444;7.196;2023-02-11T00:21:30;6.00;99.90
1049;DHT22;513;51.444;7.196;2023-02-11T00:23:57;6.10;99.90
1049;DHT22;513;51.444;7.196;2023-02-11T00:26:26;6.10;99.90
1049;DHT22;513;51.444;7.196;2023-02-11T00:28:53;6.00;99.90
1049;DHT22;513;51.444;7.196;2023-02-11T00:31:22;5.90;99.90
1049;DHT22;513;51.444;7.196;2023-02-11T00:33:49;5.90;99.90
1049;DHT22;513;51.444;7.196;2023-02-11T00:36:20;6.00;99.90
1049;DHT22;513;51.444;7.196;2023-02-11T00:38:49;5.90;99.90
1049;DHT22;513;51.444;7.196;2023-02-11T00:41:16;5.90;99.90
1049;DHT22;513;51.444;7.196;2023-02-11T00:43:43;5.90;99.90
1049;DHT22;513;51.444;7.196;2023-02-11T00:46:10;5.90;99.90
1049;DHT22;513;51.444;7.196;2023-02-11T00:48:37;5.90;99.90
1049;DHT22;513;51.444;7.196;2023-02-11T00:51:04;5.90;99.90
1049;DHT22;513;51.444;7.196;2023-02-11T00:53:33;5.90;99.90
1049;DHT22;513;51.444;7.196;2023-02-11T00:56:00;6.00;99.90
1049;DHT22;513;51.444;7.196;2023-02-11T00:58:28;6.00;99.90
1049;DHT22;513;51.444;7.196;2023-02-11T01:00:55;6.00;99.90
1049;DHT22;513;51.444;7.196;2023-02-11T01:03:22;5.90;99.90
1049;DHT22;513;51.444;7.196;2023-02-11T01:05:49;6.00;99.90
1049;DHT22;513;51.444;7.196;2023-02-11T01:08:16;6.10;99.90
1049;DHT22;513;51.444;7.196;2023-02-11T01:10:44;6.00;99.90
1049;DHT22;513;51.444;7.196;2023-02-11T01:13:10;6.00;99.90
1049;DHT22;513;51.444;7.196;2023-02-11T01:15:37;6.00;99.90
1049;DHT22;513;51.444;7.196;2023-02-11T01:18:04;6.00;99.90
1049;DHT22;513;51.444;7.196;2023-02-11T01:20:31;6.00;99.90
1049;DHT22;513;51.444;7.196;2023-02-11T01:22:58;6.10;99.90
1049;DHT22;513;51.444;7.196;2023-02-11T01:25:25;6.20;99.90
1049;DHT22;513;51.444;7.196;2023-02-11T01:27:53;6.20;99.90
1049;DHT22;513;51.444;7.196;2023-02-11T01:30:19;6.30;99.90
1049;DHT22;513;51.444;7.196;2023-02-11T01:32:46;6.40;99.90
1049;DHT22;513;51.444;7.196;2023-02-11T01:35:13;6.40;99.90
1049;DHT22;513;51.444;7.196;2023-02-11T01:37:39;6.40;99.90
1049;DHT22;513;51.444;7.196;2023-02-11T01:40:12;6.30;99.90
1049;DHT22;513;51.444;7.196;2023-02-11T01:42:40;6.40;99.90
1049;DHT22;513;51.444;7.196;2023-02-11T01:48:26;6.40;99.90
1049;DHT22;513;51.444;7.196;2023-02-11T01:51:00;6.40;99.90
1049;DHT22;513;51.444;7.196;2023-02-11T01:53:28;6.40;99.90
1049;DHT22;513;51.444;7.196;2023-02-11T01:56:14;6.30;99.90
1049;DHT22;513;51.444;7.196;2023-02-11T01:59:03;6.30;99.90
1049;DHT22;513;51.444;7.196;2023-02-11T02:01:32;6.20;99.90
1049;DHT22;513;51.444;7.196;2023-02-11T02:04:02;6.20;99.90
1049;DHT22;513;51.444;7.196;2023-02-11T02:06:33;6.20;99.90
1049;DHT22;513;51.444;7.196;2023-02-11T02:09:04;6.20;99.90
1049;DHT22;513;51.444;7.196;2023-02-11T02:11:33;6.30;99.90
1049;DHT22;513;51.444;7.196;2023-02-11T02:14:00;6.20;99.90
1049;DHT22;513;51.444;7.196;2023-02-11T02:16:30;6.30;99.90
1049;DHT22;513;51.444;7.196;2023-02-11T02:19:30;6.20;99.90
1049;DHT22;513;51.444;7.196;2023-02-11T02:25:16;6.10;99.90
1049;DHT22;513;51.444;7.196;2023-02-11T02:27:49;6.00;99.90
1049;DHT22;513;51.444;7.196;2023-02-11T02:30:45;6.00;99.90
1049;DHT22;513;51.444;7.196;2023-02-11T02:33:28;5.90;99.90
1049;DHT22;513;51.444;7.196;2023-02-11T02:36:06;5.90;99.90
1049;DHT22;513;51.444;7.196;2023-02-11T02:38:37;5.90;99.90
1049;DHT22;513;51.444;7.196;2023-02-11T02:41:07;5.90;99.90
1049;DHT22;513;51.444;7.196;2023-02-11T02:43:35;5.80;99.90
1049;DHT22;513;51.444;7.196;2023-02-11T02:46:12;5.70;99.90
1049;DHT22;513;51.444;7.196;2023-02-11T02:48:41;5.80;99.90
1049;DHT22;513;51.444;7.196;2023-02-11T02:51:11;5.80;99.90
1049;DHT22;513;51.444;7.196;2023-02-11T02:53:41;5.80;99.90
1049;DHT22;513;51.444;7.196;2023-02-11T02:56:10;5.80;99.90
1049;DHT22;513;51.444;7.196;2023-02-11T03:01:41;5.80;99.90
1049;DHT22;513;51.444;7.196;2023-02-11T03:04:15;5.90;99.90
1049;DHT22;513;51.444;7.196;2023-02-11T03:06:45;5.80;99.90
1049;DHT22;513;51.444;7.196;2023-02-11T03:09:17;5.80;99.90
1049;DHT22;513;51.444;7.196;2023-02-11T03:11:46;5.90;99.90
1049;DHT22;513;51.444;7.196;2023-02-11T03:14:14;5.80;99.90
1049;DHT22;513;51.444;7.196;2023-02-11T03:16:42;5.90;99.90
1049;DHT22;513;51.444;7.196;2023-02-11T03:19:10;5.80;99.90
1049;DHT22;513;51.444;7.196;2023-02-11T03:21:39;5.80;99.90
1049;DHT22;513;51.444;7.196;2023-02-11T03:24:07;5.80;99.90
1049;DHT22;513;51.444;7.196;2023-02-11T03:26:37;5.90;99.90
1049;DHT22;513;51.444;7.196;2023-02-11T03:29:07;5.90;99.90
1049;DHT22;513;51.444;7.196;2023-02-11T03:31:38;5.80;99.90
1049;DHT22;513;51.444;7.196;2023-02-11T03:34:08;5.80;99.90
1049;DHT22;513;51.444;7.196;2023-02-11T03:36:37;5.80;99.90
1049;DHT22;513;51.444;7.196;2023-02-11T03:39:12;5.80;99.90
1049;DHT22;513;51.444;7.196;2023-02-11T03:41:39;5.80;99.90
1049;DHT22;513;51.444;7.196;2023-02-11T03:44:07;5.80;99.90
1049;DHT22;513;51.444;7.196;2023-02-11T03:46:36;5.80;99.90
1049;DHT22;513;51.444;7.196;2023-02-11T03:49:05;5.80;99.90
1049;DHT22;513;51.444;7.196;2023-02-11T03:51:34;5.70;99.90
1049;DHT22;513;51.444;7.196;2023-02-11T03:54:03;5.80;99.90
1049;DHT22;513;51.444;7.196;2023-02-11T03:56:35;5.90;99.90
1049;DHT22;513;51.444;7.196;2023-02-11T03:59:03;5.90;99.90
1049;DHT22;513;51.444;7.196;2023-02-11T04:01:30;5.80;99.90
1049;DHT22;513;51.444;7.196;2023-02-11T04:03:57;5.80;99.90
1049;DHT22;513;51.444;7.196;2023-02-11T04:06:23;5.80;99.90
1049;DHT22;513;51.444;7.196;2023-02-11T04:08:50;5.80;99.90
1049;DHT22;513;51.444;7.196;2023-02-11T04:11:16;5.80;99.90
1049;DHT22;513;51.444;7.196;2023-02-11T04:13:44;5.80;99.90
1049;DHT22;513;51.444;7.196;2023-02-11T04:16:11;5.60;99.90
1049;DHT22;513;51.444;7.196;2023-02-11T04:18:37;5.80;99.90
1049;DHT22;513;51.444;7.196;2023-02-11T04:21:04;5.70;99.90
1049;DHT22;513;51.444;7.196;2023-02-11T04:23:30;5.70;99.90
1049;DHT22;513;51.444;7.196;2023-02-11T04:25:57;5.70;99.90
1049;DHT22;513;51.444;7.196;2023-02-11T04:28:23;5.60;99.90
1049;DHT22;513;51.444;7.196;2023-02-11T04:30:52;5.60;99.90
1049;DHT22;513;51.444;7.196;2023-02-11T04:33:19;5.60;99.90
1049;DHT22;513;51.444;7.196;2023-02-11T04:35:46;5.60;99.90
1049;DHT22;513;51.444;7.196;2023-02-11T04:38:12;5.60;99.90
1049;DHT22;513;51.444;7.196;2023-02-11T04:40:39;5.50;99.90
1049;DHT22;513;51.444;7.196;2023-02-11T04:43:05;5.60;99.90
1049;DHT22;513;51.444;7.196;2023-02-11T04:45:32;5.60;99.90
1049;DHT22;513;51.444;7.196;2023-02-11T04:48:01;5.60;99.90
1049;DHT22;513;51.444;7.196;2023-02-11T04:50:28;5.60;99.90
1049;DHT22;513;51.444;7.196;2023-02-11T04:52:54;5.60;99.90
1049;DHT22;513;51.444;7.196;2023-02-11T04:55:21;5.60;99.90
1049;DHT22;513;51.444;7.196;2023-02-11T04:57:47;5.60;99.90
1049;DHT22;513;51.444;7.196;2023-02-11T05:00:14;5.70;99.90
1049;DHT22;513;51.444;7.196;2023-02-11T05:02:41;5.70;99.90
1049;DHT22;513;51.444;7.196;2023-02-11T05:05:09;5.70;99.90
1049;DHT22;513;51.444;7.196;2023-02-11T05:07:35;5.60;99.90
1049;DHT22;513;51.444;7.196;2023-02-11T05:10:02;5.50;99.90
1049;DHT22;513;51.444;7.196;2023-02-11T05:12:29;5.50;99.90
1049;DHT22;513;51.444;7.196;2023-02-11T05:14:55;5.60;99.90
1049;DHT22;513;51.444;7.196;2023-02-11T05:17:22;5.60;99.90
1049;DHT22;513;51.444;7.196;2023-02-11T05:19:48;5.50;99.90
1049;DHT22;513;51.444;7.196;2023-02-11T05:22:16;5.50;99.90
1049;DHT22;513;51.444;7.196;2023-02-11T05:24:43;5.50;99.90
1049;DHT22;513;51.444;7.196;2023-02-11T05:27:09;5.50;99.90
1049;DHT22;513;51.444;7.196;2023-02-11T05:29:36;5.50;99.90
1049;DHT22;513;51.444;7.196;2023-02-11T05:32:02;5.40;99.90
1049;DHT22;513;51.444;7.196;2023-02-11T05:34:29;5.40;99.90
1049;DHT22;513;51.444;7.196;2023-02-11T05:36:56;5.40;99.90
1049;DHT22;513;51.444;7.196;2023-02-11T05:39:23;5.40;99.90
1049;DHT22;513;51.444;7.196;2023-02-11T05:41:50;5.40;99.90
1049;DHT22;513;51.444;7.196;2023-02-11T05:44:16;5.40;99.90
1049;DHT22;513;51.444;7.196;2023-02-11T05:46:43;5.30;99.90
1049;DHT22;513;51.444;7.196;2023-02-11T05:49:09;5.40;99.90
1049;DHT22;513;51.444;7.196;2023-02-11T05:51:36;5.40;99.90
1049;DHT22;513;51.444;7.196;2023-02-11T05:54:03;5.40;99.90
1049;DHT22;513;51.444;7.196;2023-02-11T05:56:30;5.40;99.90
1049;DHT22;513;51.444;7.196;2023-02-11T05:58:57;5.40;99.90
1049;DHT22;513;51.444;7.196;2023-02-11T06:01:24;5.30;99.90
1049;DHT22;513;51.444;7.196;2023-02-11T06:03:50;5.20;99.90
1049;DHT22;513;51.444;7.196;2023-02-11T06:06:17;5.30;99.90
1049;DHT22;513;51.444;7.196;2023-02-11T06:08:43;5.30;99.90
1049;DHT22;513;51.444;7.196;2023-02-11T06:11:10;5.30;99.90
1049;DHT22;513;51.444;7.196;2023-02-11T06:13:38;5.30;99.90
1049;DHT22;513;51.444;7.196;2023-02-11T06:16:04;5.40;99.90
1049;DHT22;513;51.444;7.196;2023-02-11T06:18:31;5.40;99.90
1049;DHT22;513;51.444;7.196;2023-02-11T06:20:58;5.30;99.90
1049;DHT22;513;51.444;7.196;2023-02-11T06:23:24;5.30;99.90
1049;DHT22;513;51.444;7.196;2023-02-11T06:25:51;5.30;99.90
1049;DHT22;513;51.444;7.196;2023-02-11T06:28:18;5.30;99.90
1049;DHT22;513;51.444;7.196;2023-02-11T06:30:46;5.40;99.90
1049;DHT22;513;51.444;7.196;2023-02-11T06:33:12;5.40;99.90
1049;DHT22;513;51.444;7.196;2023-02-11T06:35:39;5.40;99.90
1049;DHT22;513;51.444;7.196;2023-02-11T06:38:05;5.40;99.90
1049;DHT22;513;51.444;7.196;2023-02-11T06:40:32;5.50;99.90
1049;DHT22;513;51.444;7.196;2023-02-11T06:42:59;5.40;99.90
1049;DHT22;513;51.444;7.196;2023-02-11T06:45:25;5.50;99.90
1049;DHT22;513;51.444;7.196;2023-02-11T06:47:53;5.40;99.90
1049;DHT22;513;51.444;7.196;2023-02-11T06:50:19;5.40;99.90
1049;DHT22;513;51.444;7.196;2023-02-11T06:52:46;5.40;99.90
1049;DHT22;513;51.444;7.196;2023-02-11T06:55:13;5.40;99.90
1049;DHT22;513;51.444;7.196;2023-02-11T06:57:39;5.40;99.90
1049;DHT22;513;51.444;7.196;2023-02-11T07:00:06;5.50;99.90
1049;DHT22;513;51.444;7.196;2023-02-11T07:02:33;5.50;99.90
1049;DHT22;513;51.444;7.196;2023-02-11T07:05:01;5.50;99.90
1049;DHT22;513;51.444;7.196;2023-02-11T07:07:27;5.50;99.90
1049;DHT22;513;51.444;7.196;2023-02-11T07:09:54;5.50;99.90
1049;DHT22;513;51.444;7.196;2023-02-11T07:12:21;5.50;99.90
1049;DHT22;513;51.444;7.196;2023-02-11T07:14:48;5.50;99.90
1049;DHT22;513;51.444;7.196;2023-02-11T07:17:14;5.50;99.90
1049;DHT22;513;51.444;7.196;2023-02-11T07:19:41;5.50;99.90
1049;DHT22;513;51.444;7.196;2023-02-11T07:22:09;5.50;99.90
1049;DHT22;513;51.444;7.196;2023-02-11T07:24:35;5.50;99.90
1049;DHT22;513;51.444;7.196;2023-02-11T07:27:02;5.50;99.90
1049;DHT22;513;51.444;7.196;2023-02-11T07:29:28;5.60;99.90
1049;DHT22;513;51.444;7.196;2023-02-11T07:31:55;5.50;99.90
1049;DHT22;513;51.444;7.196;2023-02-11T07:34:22;5.50;99.90
1049;DHT22;513;51.444;7.196;2023-02-11T07:36:48;5.50;99.90
1049;DHT22;513;51.444;7.196;2023-02-11T07:39:16;5.60;99.90
1049;DHT22;513;51.444;7.196;2023-02-11T07:41:44;5.60;99.90
1049;DHT22;513;51.444;7.196;2023-02-11T07:44:12;5.70;99.90
1049;DHT22;513;51.444;7.196;2023-02-11T07:46:38;5.60;99.90
1049;DHT22;513;51.444;7.196;2023-02-11T07:49:07;5.60;99.90
1049;DHT22;513;51.444;7.196;2023-02-11T07:51:33;5.60;99.90
1049;DHT22;513;51.444;7.196;2023-02-11T07:54:00;5.50;99.90
1049;DHT22;513;51.444;7.196;2023-02-11T07:56:28;5.60;99.90
1049;DHT22;513;51.444;7.196;2023-02-11T07:58:55;5.60;99.90
1049;DHT22;513;51.444;7.196;2023-02-11T08:01:23;5.50;99.90
1049;DHT22;513;51.444;7.196;2023-02-11T08:03:52;5.50;99.90
1049;DHT22;513;51.444;7.196;2023-02-11T08:06:20;5.60;99.90
1049;DHT22;513;51.444;7.196;2023-02-11T08:08:47;5.60;99.90
1049;DHT22;513;51.444;7.196;2023-02-11T08:11:14;5.60;99.90
1049;DHT22;513;51.444;7.196;2023-02-11T08:13:42;5.60;99.90
1049;DHT22;513;51.444;7.196;2023-02-11T08:16:09;5.60;99.90
1049;DHT22;513;51.444;7.196;2023-02-11T08:18:42;5.60;99.90
1049;DHT22;513;51.444;7.196;2023-02-11T08:21:08;5.60;99.90
1049;DHT22;513;51.444;7.196;2023-02-11T08:23:35;5.70;99.90
1049;DHT22;513;51.444;7.196;2023-02-11T08:26:03;5.70;99.90
1049;DHT22;513;51.444;7.196;2023-02-11T08:28:29;5.80;99.90
1049;DHT22;513;51.444;7.196;2023-02-11T08:30:57;5.80;99.90
1049;DHT22;513;51.444;7.196;2023-02-11T08:33:29;5.80;99.90
1049;DHT22;513;51.444;7.196;2023-02-11T08:35:56;5.80;99.90
1049;DHT22;513;51.444;7.196;2023-02-11T08:38:22;5.80;99.90
1049;DHT22;513;51.444;7.196;2023-02-11T08:40:49;5.80;99.90
1049;DHT22;513;51.444;7.196;2023-02-11T08:43:15;5.80;99.90
1049;DHT22;513;51.444;7.196;2023-02-11T08:45:42;5.80;99.90
1049;DHT22;513;51.444;7.196;2023-02-11T08:48:10;5.90;99.90
1049;DHT22;513;51.444;7.196;2023-02-11T08:50:37;5.80;99.90
1049;DHT22;513;51.444;7.196;2023-02-11T08:53:04;5.90;99.90
1049;DHT22;513;51.444;7.196;2023-02-11T08:55:30;5.90;99.90
1049;DHT22;513;51.444;7.196;2023-02-11T08:57:57;6.00;99.90
1049;DHT22;513;51.444;7.196;2023-02-11T09:00:23;6.00;99.90
1049;DHT22;513;51.444;7.196;2023-02-11T09:02:50;6.00;99.90
1049;DHT22;513;51.444;7.196;2023-02-11T09:05:18;6.10;99.90
1049;DHT22;513;51.444;7.196;2023-02-11T09:07:44;6.10;99.90
1049;DHT22;513;51.444;7.196;2023-02-11T09:10:11;6.10;99.90
1049;DHT22;513;51.444;7.196;2023-02-11T09:12:37;6.10;99.90
1049;DHT22;513;51.444;7.196;2023-02-11T09:15:04;6.20;99.90
1049;DHT22;513;51.444;7.196;2023-02-11T09:17:31;6.00;99.90
1049;DHT22;513;51.444;7.196;2023-02-11T09:19:58;6.10;99.90
1049;DHT22;513;51.444;7.196;2023-02-11T09:22:26;6.10;99.90
1049;DHT22;513;51.444;7.196;2023-02-11T09:24:52;6.20;99.90
1049;DHT22;513;51.444;7.196;2023-02-11T09:27:19;6.30;99.90
1049;DHT22;513;51.444;7.196;2023-02-11T09:29:45;6.20;99.90
1049;DHT22;513;51.444;7.196;2023-02-11T09:32:12;6.30;99.90
1049;DHT22;513;51.444;7.196;2023-02-11T09:34:39;6.20;99.90
1049;DHT22;513;51.444;7.196;2023-02-11T09:37:05;6.20;99.90
1049;DHT22;513;51.444;7.196;2023-02-11T09:39:33;6.30;99.90
1049;DHT22;513;51.444;7.196;2023-02-11T09:42:07;6.30;99.90
1049;DHT22;513;51.444;7.196;2023-02-11T09:44:37;6.30;99.90
1049;DHT22;513;51.444;7.196;2023-02-11T09:47:04;6.40;99.90
1049;DHT22;513;51.444;7.196;2023-02-11T09:49:33;6.20;99.90
1049;DHT22;513;51.444;7.196;2023-02-11T09:52:01;6.40;99.90
1049;DHT22;513;51.444;7.196;2023-02-11T09:54:30;6.40;99.90
1049;DHT22;513;51.444;7.196;2023-02-11T09:57:00;6.50;99.90
1049;DHT22;513;51.444;7.196;2023-02-11T09:59:27;6.50;99.90
1049;DHT22;513;51.444;7.196;2023-02-11T10:01:54;6.60;99.90
1049;DHT22;513;51.444;7.196;2023-02-11T10:04:26;6.60;99.90
1049;DHT22;513;51.444;7.196;2023-02-11T10:07:05;6.60;99.90
1049;DHT22;513;51.444;7.196;2023-02-11T10:09:55;6.60;99.90
1049;DHT22;513;51.444;7.196;2023-02-11T10:12:37;6.60;99.90
1049;DHT22;513;51.444;7.196;2023-02-11T10:15:13;6.70;99.90
1049;DHT22;513;51.444;7.196;2023-02-11T10:17:42;6.60;99.90
1049;DHT22;513;51.444;7.196;2023-02-11T10:20:16;6.60;99.90
1049;DHT22;513;51.444;7.196;2023-02-11T10:22:45;6.70;99.90
1049;DHT22;513;51.444;7.196;2023-02-11T10:25:16;6.60;99.90
1049;DHT22;513;51.444;7.196;2023-02-11T10:27:45;6.80;99.90
1049;DHT22;513;51.444;7.196;2023-02-11T10:30:15;6.80;99.90
1049;DHT22;513;51.444;7.196;2023-02-11T10:32:46;6.80;99.90
1049;DHT22;513;51.444;7.196;2023-02-11T10:35:16;6.90;99.90
1049;DHT22;513;51.444;7.196;2023-02-11T10:37:45;6.80;99.90
1049;DHT22;513;51.444;7.196;2023-02-11T10:40:12;6.80;99.90
1049;DHT22;513;51.444;7.196;2023-02-11T10:42:39;6.80;99.90
1049;DHT22;513;51.444;7.196;2023-02-11T10:45:16;6.90;99.90
1049;DHT22;513;51.444;7.196;2023-02-11T10:47:44;6.80;99.90
1049;DHT22;513;51.444;7.196;2023-02-11T10:50:20;6.70;99.90
1049;DHT22;513;51.444;7.196;2023-02-11T10:52:47;6.80;99.90
1049;DHT22;513;51.444;7.196;2023-02-11T10:55:15;6.80;99.90
1049;DHT22;513;51.444;7.196;2023-02-11T10:57:51;6.90;99.90
1049;DHT22;513;51.444;7.196;2023-02-11T11:00:36;6.90;99.90
1049;DHT22;513;51.444;7.196;2023-02-11T11:03:05;6.80;99.90
1049;DHT22;513;51.444;7.196;2023-02-11T11:05:35;7.00;99.90
1049;DHT22;513;51.444;7.196;2023-02-11T11:08:05;7.10;99.90
1049;DHT22;513;51.444;7.196;2023-02-11T11:10:37;7.10;99.90
1049;DHT22;513;51.444;7.196;2023-02-11T11:13:23;7.20;99.90
1049;DHT22;513;51.444;7.196;2023-02-11T11:16:07;7.20;99.90
1049;DHT22;513;51.444;7.196;2023-02-11T11:18:34;7.30;99.90
1049;DHT22;513;51.444;7.196;2023-02-11T11:21:02;7.40;99.90
1049;DHT22;513;51.444;7.196;2023-02-11T11:23:30;7.40;99.90
1049;DHT22;513;51.444;7.196;2023-02-11T11:26:00;7.50;99.90
1049;DHT22;513;51.444;7.196;2023-02-11T11:28:30;7.60;99.90
1049;DHT22;513;51.444;7.196;2023-02-11T11:31:00;7.60;99.90
1049;DHT22;513;51.444;7.196;2023-02-11T11:33:28;7.60;99.90
1049;DHT22;513;51.444;7.196;2023-02-11T11:35:59;7.70;99.90
1049;DHT22;513;51.444;7.196;2023-02-11T11:38:27;7.60;99.90
1049;DHT22;513;51.444;7.196;2023-02-11T11:41:16;7.50;99.90
1049;DHT22;513;51.444;7.196;2023-02-11T11:43:57;7.50;99.90
1049;DHT22;513;51.444;7.196;2023-02-11T11:46:29;7.50;99.90
1049;DHT22;513;51.444;7.196;2023-02-11T11:49:02;7.50;99.90
1049;DHT22;513;51.444;7.196;2023-02-11T11:51:31;7.60;99.90
1049;DHT22;513;51.444;7.196;2023-02-11T11:54:00;7.50;99.90
1049;DHT22;513;51.444;7.196;2023-02-11T11:56:31;7.50;99.90
1049;DHT22;513;51.444;7.196;2023-02-11T11:58:59;7.60;99.90
1049;DHT22;513;51.444;7.196;2023-02-11T12:01:36;7.70;99.90
1049;DHT22;513;51.444;7.196;2023-02-11T12:04:33;7.80;99.90
1049;DHT22;513;51.444;7.196;2023-02-11T12:07:15;7.90;99.90
1049;DHT22;513;51.444;7.196;2023-02-11T12:10:00;7.90;99.90
1049;DHT22;513;51.444;7.196;2023-02-11T12:12:35;8.00;99.90
1049;DHT22;513;51.444;7.196;2023-02-11T12:15:14;8.00;99.90
1049;DHT22;513;51.444;7.196;2023-02-11T12:17:56;8.10;99.90
1049;DHT22;513;51.444;7.196;2023-02-11T12:20:33;8.10;99.90
1049;DHT22;513;51.444;7.196;2023-02-11T12:23:18;8.00;99.90
1049;DHT22;513;51.444;7.196;2023-02-11T12:25:54;8.00;99.90
1049;DHT22;513;51.444;7.196;2023-02-11T12:28:30;8.00;99.90
1049;DHT22;513;51.444;7.196;2023-02-11T12:31:16;7.90;99.90
1049;DHT22;513;51.444;7.196;2023-02-11T12:34:04;7.90;99.90
1049;DHT22;513;51.444;7.196;2023-02-11T12:36:53;8.00;99.90
1049;DHT22;513;51.444;7.196;2023-02-11T12:39:33;8.00;99.90
1049;DHT22;513;51.444;7.196;2023-02-11T12:42:26;8.20;99.90
1049;DHT22;513;51.444;7.196;2023-02-11T12:45:21;8.20;99.90
1049;DHT22;513;51.444;7.196;2023-02-11T12:48:04;8.10;99.90
1049;DHT22;513;51.444;7.196;2023-02-11T12:50:40;8.10;99.90
1049;DHT22;513;51.444;7.196;2023-02-11T12:53:32;8.20;99.90
1049;DHT22;513;51.444;7.196;2023-02-11T12:56:05;8.10;99.90
1049;DHT22;513;51.444;7.196;2023-02-11T12:58:36;8.20;99.90
1049;DHT22;513;51.444;7.196;2023-02-11T13:01:07;8.10;99.90
1049;DHT22;513;51.444;7.196;2023-02-11T13:03:38;8.10;99.90
1049;DHT22;513;51.444;7.196;2023-02-11T13:06:09;8.20;99.90
1049;DHT22;513;51.444;7.196;2023-02-11T13:08:41;8.20;99.90
1049;DHT22;513;51.444;7.196;2023-02-11T13:11:12;8.30;99.90
1049;DHT22;513;51.444;7.196;2023-02-11T13:13:47;8.10;99.90
1049;DHT22;513;51.444;7.196;2023-02-11T13:16:22;8.20;99.90
1049;DHT22;513;51.444;7.196;2023-02-11T13:18:56;8.20;99.90
1049;DHT22;513;51.444;7.196;2023-02-11T13:21:40;8.20;99.90
1049;DHT22;513;51.444;7.196;2023-02-11T13:24:21;8.30;99.90
1049;DHT22;513;51.444;7.196;2023-02-11T13:26:58;8.40;99.90
1049;DHT22;513;51.444;7.196;2023-02-11T13:29:31;8.50;99.90
1049;DHT22;513;51.444;7.196;2023-02-11T13:32:08;8.40;99.90
1049;DHT22;513;51.444;7.196;2023-02-11T13:34:56;8.50;99.90
1049;DHT22;513;51.444;7.196;2023-02-11T13:37:25;8.60;99.90
1049;DHT22;513;51.444;7.196;2023-02-11T13:39:58;8.50;99.90
1049;DHT22;513;51.444;7.196;2023-02-11T13:42:25;8.50;99.90
1049;DHT22;513;51.444;7.196;2023-02-11T13:44:53;8.50;99.90
1049;DHT22;513;51.444;7.196;2023-02-11T13:47:29;8.60;99.90
1049;DHT22;513;51.444;7.196;2023-02-11T13:49:57;8.50;99.90
1049;DHT22;513;51.444;7.196;2023-02-11T13:52:29;8.40;99.90
1049;DHT22;513;51.444;7.196;2023-02-11T13:55:02;8.50;99.90
1049;DHT22;513;51.444;7.196;2023-02-11T13:57:33;8.50;99.90
1049;DHT22;513;51.444;7.196;2023-02-11T14:00:03;8.40;99.90
1049;DHT22;513;51.444;7.196;2023-02-11T14:02:35;8.30;99.90
1049;DHT22;513;51.444;7.196;2023-02-11T14:05:25;8.40;99.90
1049;DHT22;513;51.444;7.196;2023-02-11T14:08:15;8.40;99.90
1049;DHT22;513;51.444;7.196;2023-02-11T14:11:01;8.50;99.90
1049;DHT22;513;51.444;7.196;2023-02-11T14:13:33;8.40;99.90
1049;DHT22;513;51.444;7.196;2023-02-11T14:16:06;8.50;99.90
1049;DHT22;513;51.444;7.196;2023-02-11T14:19:00;8.50;99.90
1049;DHT22;513;51.444;7.196;2023-02-11T14:21:36;8.60;99.90
1049;DHT22;513;51.444;7.196;2023-02-11T14:27:30;8.60;99.90
1049;DHT22;513;51.444;7.196;2023-02-11T14:30:25;8.60;99.90
1049;DHT22;513;51.444;7.196;2023-02-11T14:35:59;8.40;99.90
1049;DHT22;513;51.444;7.196;2023-02-11T14:38:38;8.60;99.90
1049;DHT22;513;51.444;7.196;2023-02-11T14:41:10;8.40;99.90
1049;DHT22;513;51.444;7.196;2023-02-11T14:43:42;8.40;99.90
1049;DHT22;513;51.444;7.196;2023-02-11T14:46:11;8.40;99.90
1049;DHT22;513;51.444;7.196;2023-02-11T14:48:45;8.60;99.90
1049;DHT22;513;51.444;7.196;2023-02-11T14:51:15;8.60;99.90
1049;DHT22;513;51.444;7.196;2023-02-11T14:53:47;8.50;99.90
1049;DHT22;513;51.444;7.196;2023-02-11T14:56:17;8.50;99.90
1049;DHT22;513;51.444;7.196;2023-02-11T14:58:47;8.60;99.90
1049;DHT22;513;51.444;7.196;2023-02-11T15:01:28;8.50;99.90
1049;DHT22;513;51.444;7.196;2023-02-11T15:03:56;8.60;99.90
1049;DHT22;513;51.444;7.196;2023-02-11T15:06:25;8.50;99.90
1049;DHT22;513;51.444;7.196;2023-02-11T15:08:56;8.50;99.90
1049;DHT22;513;51.444;7.196;2023-02-11T15:11:27;8.50;99.90
1049;DHT22;513;51.444;7.196;2023-02-11T15:13:57;8.50;99.90
1049;DHT22;513;51.444;7.196;2023-02-11T15:16:26;8.60;99.90
1049;DHT22;513;51.444;7.196;2023-02-11T15:18:55;8.40;99.90
1049;DHT22;513;51.444;7.196;2023-02-11T15:21:25;8.50;99.90
1049;DHT22;513;51.444;7.196;2023-02-11T15:23:55;8.50;99.90
1049;DHT22;513;51.444;7.196;2023-02-11T15:26:22;8.50;99.90
1049;DHT22;513;51.444;7.196;2023-02-11T15:28:49;8.50;99.90
1049;DHT22;513;51.444;7.196;2023-02-11T15:31:21;8.60;99.90
1049;DHT22;513;51.444;7.196;2023-02-11T15:33:48;8.60;99.90
1049;DHT22;513;51.444;7.196;2023-02-11T15:36:17;8.60;99.90
1049;DHT22;513;51.444;7.196;2023-02-11T15:38:45;8.50;99.90
1049;DHT22;513;51.444;7.196;2023-02-11T15:41:33;8.60;99.90
1049;DHT22;513;51.444;7.196;2023-02-11T15:44:00;8.40;99.90
1049;DHT22;513;51.444;7.196;2023-02-11T15:46:35;8.40;99.90
1049;DHT22;513;51.444;7.196;2023-02-11T15:49:03;8.40;99.90
1049;DHT22;513;51.444;7.196;2023-02-11T15:51:34;8.40;99.90
1049;DHT22;513;51.444;7.196;2023-02-11T15:54:03;8.40;99.90
1049;DHT22;513;51.444;7.196;2023-02-11T15:56:35;8.40;99.90
1049;DHT22;513;51.444;7.196;2023-02-11T15:59:10;8.30;99.90
1049;DHT22;513;51.444;7.196;2023-02-11T16:01:41;8.40;99.90
1049;DHT22;513;51.444;7.196;2023-02-11T16:04:15;8.30;99.90
1049;DHT22;513;51.444;7.196;2023-02-11T16:06:42;8.30;99.90
1049;DHT22;513;51.444;7.196;2023-02-11T16:09:24;8.30;99.90
1049;DHT22;513;51.444;7.196;2023-02-11T16:11:56;8.20;99.90
1049;DHT22;513;51.444;7.196;2023-02-11T16:14:28;8.30;99.90
1049;DHT22;513;51.444;7.196;2023-02-11T16:16:57;8.40;99.90
1049;DHT22;513;51.444;7.196;2023-02-11T16:19:26;8.40;99.90
1049;DHT22;513;51.444;7.196;2023-02-11T16:21:55;8.40;99.90
1049;DHT22;513;51.444;7.196;2023-02-11T16:24:25;8.30;99.90
1049;DHT22;513;51.444;7.196;2023-02-11T16:26:55;8.30;99.90
1049;DHT22;513;51.444;7.196;2023-02-11T16:29:25;8.30;99.90
1049;DHT22;513;51.444;7.196;2023-02-11T16:31:53;8.30;99.90
1049;DHT22;513;51.444;7.196;2023-02-11T16:34:23;8.20;99.90
1049;DHT22;513;51.444;7.196;2023-02-11T16:36:50;8.30;99.90
1049;DHT22;513;51.444;7.196;2023-02-11T16:39:18;8.30;99.90
1049;DHT22;513;51.444;7.196;2023-02-11T16:41:47;8.20;99.90
1049;DHT22;513;51.444;7.196;2023-02-11T16:44:15;8.20;99.90
1049;DHT22;513;51.444;7.196;2023-02-11T16:46:42;8.20;99.90
1049;DHT22;513;51.444;7.196;2023-02-11T16:49:11;8.10;99.90
1049;DHT22;513;51.444;7.196;2023-02-11T16:51:46;8.20;99.90
1049;DHT22;513;51.444;7.196;2023-02-11T16:54:16;8.10;99.90
1049;DHT22;513;51.444;7.196;2023-02-11T16:56:43;8.10;99.90
1049;DHT22;513;51.444;7.196;2023-02-11T16:59:10;8.20;99.90
1049;DHT22;513;51.444;7.196;2023-02-11T17:01:38;8.10;99.90
1049;DHT22;513;51.444;7.196;2023-02-11T17:04:05;8.10;99.90
1049;DHT22;513;51.444;7.196;2023-02-11T17:06:33;8.20;99.90
1049;DHT22;513;51.444;7.196;2023-02-11T17:09:01;8.10;99.90
1049;DHT22;513;51.444;7.196;2023-02-11T17:11:30;8.00;99.90